Ana Sayfa
METAR-TAF:

METAR-TAF

Havaalanları :

South Big Horn County Airport

Greybull, Wyoming, Amerika Birleşik Devletleri

Enlem: 44-30-57N, Boylam: 108-04-33W, yükseklik: 1199 m

Güncel hava durumu gözlemi

Rapor saat 10:53 UTC de 20 dakika önce yapıldı.
Rüzgar kuzeydan 15 kt ve 20 kt'a kadar ani rüzgarlar
Sıcaklık 11°C
Nem 87%
Basınç 1012 hPa
Görüş mesafesi: 16.1 km
7000 ft yükseklikte çok bulutlu
hafif yağmur

METAR: KGEY 271053Z AUTO 35015G20KT 10SM -RA OVC070 11/09 A2987 RMK AO2 PK WND 30026/0958 SLP086 P0000 T01110094

Saat: 05:13 (11:13 UTC)


TAF: eksik

4.000'den fazla havaalanı için hava durumu gözlemleri ve tahminleri (METAR ve TAF raporları).

Kullanılabilir istasyonlar harita üzerinde sarı ve kırmızı noktalarla gösterilir.

İstasyonun adını görmek için fareyi noktanın üzerinde gezdirin.

Sonrasında hava gözlem ve tahminlerini görmek için tıklayın.

Haritayı değiştirmek için: yaklaştırmak için siyah artı işaretli yeşil düğmeye ve uzaklaştırmak için de eksi işaretli düğmeye hızla tıklayın; bitişik haritalar için yeşil okları kullanın.


METAR-TAF: